Observation data for Abernathy on 07/20/2019      Previous  Date       Current Mesonet Observations  Soil Data  Daily Summary Page  Observations in Plain Language
KARS 200500Z 17010KT 28/13 A2996 RMK A01 T02830130  RH  041%=      5-min Rain = 0
KARS 200505Z 17011KT 28/13 A2996 RMK A01 T02820130  RH  041%=      5-min Rain = 0
KARS 200510Z 18011KT 28/13 A2996 RMK A01 T02810130  RH  041%=      5-min Rain = 0
KARS 200515Z 18011KT 28/13 A2996 RMK A01 T02800129  RH  041%=      5-min Rain = 0
KARS 200520Z 18011KT 28/13 A2996 RMK A01 T02790128  RH  041%=      5-min Rain = 0
KARS 200525Z 18011KT 28/13 A2996 RMK A01 T02780128  RH  041%=      5-min Rain = 0
KARS 200530Z 18012KT 28/13 A2996 RMK A01 T02780127  RH  041%=      5-min Rain = 0
KARS 200535Z 18012KT 28/13 A2996 RMK A01 T02790125  RH  040%=      5-min Rain = 0
KARS 200540Z 18012KT 28/12 A2996 RMK A01 T02800123  RH  039%=      5-min Rain = 0
KARS 200545Z 18013KT 28/12 A2996 RMK A01 T02800121  RH  039%=      5-min Rain = 0
KARS 200550Z 18014KT 28/12 A2996 RMK A01 T02810119  RH  038%=      5-min Rain = 0
KARS 200555Z 18014KT 28/12 A2996 RMK A01 T02820118  RH  037%=      5-min Rain = 0
KARS 200600Z 18015G20KT 28/12 A2996 RMK A01 T02820117  RH  037%=      5-min Rain = 0
KARS 200605Z 18016KT 28/12 A2996 RMK A01 T02830117  RH  037%=      5-min Rain = 0
KARS 200610Z 19016G22KT 28/12 A2996 RMK A01 T02830117  RH  037%=      5-min Rain = 0
KARS 200615Z 19016G24KT 28/12 A2996 RMK A01 T02830117  RH  037%=      5-min Rain = 0
KARS 200620Z 19015KT 28/12 A2996 RMK A01 T02820117  RH  037%=      5-min Rain = 0
KARS 200625Z 19017G24KT 28/12 A2996 RMK A01 T02800117  RH  038%=      5-min Rain = 0
KARS 200630Z 19017G23KT 28/12 A2996 RMK A01 T02810118  RH  038%=      5-min Rain = 0
KARS 200635Z 19016G21KT 28/12 A2996 RMK A01 T02790118  RH  038%=      5-min Rain = 0
KARS 200640Z 19016G21KT 28/12 A2996 RMK A01 T02780119  RH  039%=      5-min Rain = 0
KARS 200645Z 19016KT 28/12 A2997 RMK A01 T02780120  RH  039%=      5-min Rain = 0
KARS 200650Z 19017G22KT 28/12 A2997 RMK A01 T02780121  RH  039%=      5-min Rain = 0
KARS 200655Z 19017G22KT 28/12 A2997 RMK A01 T02770121  RH  039%=      5-min Rain = 0
KARS 200700Z 19017G22KT 28/12 A2996 RMK A01 T02770121  RH  039%=      5-min Rain = 0
KARS 200705Z 19016KT 28/12 A2996 RMK A01 T02760122  RH  040%=      5-min Rain = 0
KARS 200710Z 19017G22KT 28/12 A2997 RMK A01 T02760122  RH  040%=      5-min Rain = 0
KARS 200715Z 19016G23KT 28/12 A2997 RMK A01 T02750122  RH  040%=      5-min Rain = 0
KARS 200720Z 19017G22KT 28/12 A2997 RMK A01 T02750122  RH  040%=      5-min Rain = 0
KARS 200725Z 19016G21KT 27/12 A2997 RMK A01 T02740123  RH  041%=      5-min Rain = 0
KARS 200730Z 19016G22KT 27/12 A2997 RMK A01 T02740123  RH  041%=      5-min Rain = 0
KARS 200735Z 19016G21KT 27/12 A2997 RMK A01 T02730123  RH  041%=      5-min Rain = 0
KARS 200740Z 19016KT 27/12 A2997 RMK A01 T02740124  RH  041%=      5-min Rain = 0
KARS 200745Z 19015KT 27/13 A2997 RMK A01 T02720125  RH  042%=      5-min Rain = 0
KARS 200750Z 20015G20KT 27/13 A2997 RMK A01 T02710125  RH  042%=      5-min Rain = 0
KARS 200755Z 20015KT 27/13 A2997 RMK A01 T02710126  RH  042%=      5-min Rain = 0
KARS 200800Z 20013KT 27/13 A2996 RMK A01 T02690127  RH  043%=      5-min Rain = 0
KARS 200805Z 20014G19KT 27/13 A2996 RMK A01 T02680127  RH  043%=      5-min Rain = 0
KARS 200810Z 20014KT 27/13 A2996 RMK A01 T02690127  RH  043%=      5-min Rain = 0
KARS 200815Z 20013KT 27/13 A2996 RMK A01 T02670128  RH  044%=      5-min Rain = 0
KARS 200820Z 20014G19KT 27/13 A2996 RMK A01 T02670128  RH  044%=      5-min Rain = 0
KARS 200825Z 20014KT 27/13 A2996 RMK A01 T02680128  RH  044%=      5-min Rain = 0
KARS 200830Z 20014KT 27/13 A2996 RMK A01 T02670128  RH  044%=      5-min Rain = 0
KARS 200835Z 20014KT 27/13 A2996 RMK A01 T02670128  RH  044%=      5-min Rain = 0
KARS 200840Z 20015KT 27/13 A2996 RMK A01 T02670128  RH  044%=      5-min Rain = 0
KARS 200845Z 20014KT 27/13 A2996 RMK A01 T02660129  RH  044%=      5-min Rain = 0
KARS 200850Z 20014KT 27/13 A2996 RMK A01 T02660129  RH  045%=      5-min Rain = 0
KARS 200855Z 19013KT 26/13 A2996 RMK A01 T02640129  RH  045%=      5-min Rain = 0
KARS 200900Z 19012KT 26/13 A2996 RMK A01 T02620128  RH  045%=      5-min Rain = 0
KARS 200905Z 19013KT 26/13 A2996 RMK A01 T02620127  RH  045%=      5-min Rain = 0
KARS 200910Z 19013KT 26/13 A2996 RMK A01 T02620128  RH  045%=      5-min Rain = 0
KARS 200915Z 19014KT 26/13 A2996 RMK A01 T02610128  RH  045%=      5-min Rain = 0
KARS 200920Z 19013G18KT 26/13 A2996 RMK A01 T02600128  RH  046%=      5-min Rain = 0
KARS 200925Z 19014G21KT 26/13 A2996 RMK A01 T02590128  RH  046%=      5-min Rain = 0
KARS 200930Z 19013KT 26/13 A2996 RMK A01 T02580127  RH  046%=      5-min Rain = 0
KARS 200935Z 19013KT 26/13 A2996 RMK A01 T02560127  RH  047%=      5-min Rain = 0
KARS 200940Z 19013KT 25/13 A2996 RMK A01 T02540128  RH  047%=      5-min Rain = 0
KARS 200945Z 19013KT 25/13 A2996 RMK A01 T02530128  RH  047%=      5-min Rain = 0
KARS 200950Z 19012G17KT 25/13 A2996 RMK A01 T02520127  RH  048%=      5-min Rain = 0
KARS 200955Z 19012KT 25/13 A2996 RMK A01 T02510127  RH  048%=      5-min Rain = 0
KARS 201000Z 19012KT 25/13 A2996 RMK A01 T02500127  RH  048%=      5-min Rain = 0
KARS 201005Z 18011G16KT 25/13 A2997 RMK A01 T02490128  RH  049%=      5-min Rain = 0
KARS 201010Z 18011KT 25/13 A2997 RMK A01 T02470128  RH  049%=      5-min Rain = 0
KARS 201015Z 18010KT 25/13 A2997 RMK A01 T02450128  RH  050%=      5-min Rain = 0
KARS 201020Z 19011KT 24/13 A2997 RMK A01 T02430128  RH  051%=      5-min Rain = 0
KARS 201025Z 18010KT 24/13 A2997 RMK A01 T02420128  RH  051%=      5-min Rain = 0
KARS 201030Z 18010KT 24/13 A2997 RMK A01 T02410129  RH  051%=      5-min Rain = 0
KARS 201035Z 18011KT 24/13 A2997 RMK A01 T02390128  RH  052%=      5-min Rain = 0
KARS 201040Z 18011KT 24/13 A2997 RMK A01 T02400129  RH  052%=      5-min Rain = 0
KARS 201045Z 19012KT 24/13 A2997 RMK A01 T02400131  RH  053%=      5-min Rain = 0
KARS 201050Z 19012KT 24/13 A2997 RMK A01 T02400132  RH  053%=      5-min Rain = 0
KARS 201055Z 19012KT 24/13 A2997 RMK A01 T02390133  RH  054%=      5-min Rain = 0
KARS 201100Z 19012KT 24/13 A2997 RMK A01 T02380134  RH  054%=      5-min Rain = 0
KARS 201105Z 19012KT 24/13 A2997 RMK A01 T02370134  RH  055%=      5-min Rain = 0
KARS 201110Z 19011KT 24/14 A2997 RMK A01 T02370135  RH  055%=      5-min Rain = 0
KARS 201115Z 19012KT 24/14 A2997 RMK A01 T02360136  RH  056%=      5-min Rain = 0
KARS 201120Z 19012KT 24/14 A2997 RMK A01 T02360137  RH  056%=      5-min Rain = 0
KARS 201125Z 19012KT 24/14 A2997 RMK A01 T02350137  RH  057%=      5-min Rain = 0
KARS 201130Z 19011KT 23/14 A2997 RMK A01 T02320137  RH  058%=      5-min Rain = 0
KARS 201135Z 18011KT 23/14 A2997 RMK A01 T02310138  RH  058%=      5-min Rain = 0
KARS 201140Z 18012KT 23/14 A2997 RMK A01 T02300138  RH  059%=      5-min Rain = 0
KARS 201145Z 18011KT 23/14 A2997 RMK A01 T02290139  RH  059%=      5-min Rain = 0
KARS 201150Z 18011KT 23/14 A2997 RMK A01 T02280139  RH  060%=      5-min Rain = 0
KARS 201155Z 18011KT 23/14 A2997 RMK A01 T02280140  RH  060%=      5-min Rain = 0
KARS 201200Z 18012KT 23/14 A2997 RMK A01 T02280141  RH  060%=      5-min Rain = 0
KARS 201205Z 18011KT 23/14 A2997 RMK A01 T02280142  RH  061%=      5-min Rain = 0
KARS 201210Z 18010KT 23/14 A2997 RMK A01 T02280143  RH  061%=      5-min Rain = 0
KARS 201215Z 18010KT 23/14 A2997 RMK A01 T02290144  RH  061%=      5-min Rain = 0
KARS 201220Z 18010KT 23/15 A2997 RMK A01 T02300145  RH  062%=      5-min Rain = 0
KARS 201225Z 18011KT 23/15 A2997 RMK A01 T02310147  RH  062%=      5-min Rain = 0
KARS 201230Z 18011KT 23/15 A2997 RMK A01 T02320148  RH  062%=      5-min Rain = 0
KARS 201235Z 19011KT 23/15 A2997 RMK A01 T02330149  RH  062%=      5-min Rain = 0
KARS 201240Z 18012KT 24/15 A2997 RMK A01 T02350150  RH  062%=      5-min Rain = 0
KARS 201245Z 18013KT 24/15 A2997 RMK A01 T02360151  RH  061%=      5-min Rain = 0
KARS 201250Z 19012KT 24/15 A2998 RMK A01 T02380152  RH  061%=      5-min Rain = 0
KARS 201255Z 19014KT 24/15 A2997 RMK A01 T02390152  RH  061%=      5-min Rain = 0
KARS 201300Z 19013KT 24/15 A2998 RMK A01 T02400153  RH  061%=      5-min Rain = 0
KARS 201305Z 19014G19KT 24/15 A2998 RMK A01 T02420154  RH  061%=      5-min Rain = 0
KARS 201310Z 19015KT 24/16 A2998 RMK A01 T02420155  RH  061%=      5-min Rain = 0
KARS 201315Z 19015KT 24/16 A2997 RMK A01 T02440156  RH  061%=      5-min Rain = 0
KARS 201320Z 19016G21KT 25/16 A2998 RMK A01 T02460156  RH  060%=      5-min Rain = 0
KARS 201325Z 19017KT 25/16 A2998 RMK A01 T02470157  RH  060%=      5-min Rain = 0
KARS 201330Z 19017KT 25/16 A2998 RMK A01 T02470157  RH  060%=      5-min Rain = 0
KARS 201335Z 19015KT 25/16 A2998 RMK A01 T02490158  RH  060%=      5-min Rain = 0
KARS 201340Z 19016G21KT 25/16 A2998 RMK A01 T02510159  RH  059%=      5-min Rain = 0
KARS 201345Z 19016KT 25/16 A2998 RMK A01 T02520159  RH  059%=      5-min Rain = 0
KARS 201350Z 19017KT 25/16 A2998 RMK A01 T02530159  RH  059%=      5-min Rain = 0
KARS 201355Z 19017KT 26/16 A2998 RMK A01 T02560160  RH  058%=      5-min Rain = 0
KARS 201400Z 19015G20KT 26/16 A2998 RMK A01 T02580161  RH  058%=      5-min Rain = 0
KARS 201405Z 18017KT 26/16 A2998 RMK A01 T02600160  RH  057%=      5-min Rain = 0
KARS 201410Z 19017KT 26/16 A2998 RMK A01 T02600161  RH  057%=      5-min Rain = 0
KARS 201415Z 18019KT 26/16 A2998 RMK A01 T02610160  RH  056%=      5-min Rain = 0
KARS 201420Z 19017G23KT 26/16 A2998 RMK A01 T02630160  RH  056%=      5-min Rain = 0
KARS 201425Z 19018KT 27/16 A2998 RMK A01 T02670161  RH  055%=      5-min Rain = 0
KARS 201430Z 19016KT 27/16 A2998 RMK A01 T02700162  RH  054%=      5-min Rain = 0
KARS 201435Z 19016G21KT 27/16 A2998 RMK A01 T02720162  RH  053%=      5-min Rain = 0
KARS 201440Z 19017KT 27/16 A2998 RMK A01 T02730162  RH  053%=      5-min Rain = 0
KARS 201445Z 19018KT 27/16 A2998 RMK A01 T02710161  RH  053%=      5-min Rain = 0
KARS 201450Z 19015G22KT 28/16 A2998 RMK A01 T02760163  RH  052%=      5-min Rain = 0
KARS 201455Z 18018KT 28/16 A2998 RMK A01 T02780161  RH  051%=      5-min Rain = 0
KARS 201500Z 19018KT 28/16 A2998 RMK A01 T02790161  RH  051%=      5-min Rain = 0
KARS 201505Z 18016G21KT 28/16 A2998 RMK A01 T02830163  RH  050%=      5-min Rain = 0
KARS 201510Z 19016KT 28/16 A2998 RMK A01 T02840162  RH  050%=      5-min Rain = 0
KARS 201515Z 18016G21KT 29/16 A2998 RMK A01 T02860162  RH  049%=      5-min Rain = 0
KARS 201520Z 19016KT 29/16 A2997 RMK A01 T02870162  RH  049%=      5-min Rain = 0
KARS 201525Z 19016KT 29/16 A2997 RMK A01 T02880161  RH  048%=      5-min Rain = 0
KARS 201530Z 18016KT 29/16 A2997 RMK A01 T02900161  RH  048%=      5-min Rain = 0
KARS 201535Z 19016KT 29/16 A2997 RMK A01 T02890161  RH  048%=      5-min Rain = 0
KARS 201540Z 19015KT 29/16 A2997 RMK A01 T02920160  RH  047%=      5-min Rain = 0
KARS 201545Z 19014G21KT 29/16 A2997 RMK A01 T02930161  RH  047%=      5-min Rain = 0
KARS 201550Z 18013KT 30/16 A2998 RMK A01 T02950163  RH  047%=      5-min Rain = 0
KARS 201555Z 19014G19KT 30/16 A2998 RMK A01 T02950162  RH  047%=      5-min Rain = 0
KARS 201600Z 19014KT 30/16 A2997 RMK A01 T02980163  RH  046%=      5-min Rain = 0
KARS 201605Z 19012G19KT 30/16 A2997 RMK A01 T03000162  RH  045%=      5-min Rain = 0
KARS 201610Z 19012G18KT 30/16 A2997 RMK A01 T03010162  RH  045%=      5-min Rain = 0
KARS 201615Z 21012G17KT 30/16 A2998 RMK A01 T03040161  RH  044%=      5-min Rain = 0
KARS 201620Z 19012KT 31/17 A2998 RMK A01 T03100166  RH  044%=      5-min Rain = 0
KARS 201625Z 18013G19KT 31/16 A2998 RMK A01 T03050163  RH  044%=      5-min Rain = 0
KARS 201630Z 19013KT 31/16 A2998 RMK A01 T03080163  RH  044%=      5-min Rain = 0
KARS 201635Z 18013KT 31/16 A2998 RMK A01 T03110163  RH  043%=      5-min Rain = 0
KARS 201640Z 18011KT 31/16 A2998 RMK A01 T03100164  RH  043%=      5-min Rain = 0
KARS 201645Z 18013G18KT 31/17 A2997 RMK A01 T03130165  RH  043%=      5-min Rain = 0
KARS 201650Z 20012KT 32/16 A2997 RMK A01 T03160163  RH  042%=      5-min Rain = 0
KARS 201655Z 19012G17KT 31/16 A2997 RMK A01 T03140164  RH  042%=      5-min Rain = 0
KARS 201700Z 18014G22KT 32/16 A2997 RMK A01 T03200164  RH  041%=      5-min Rain = 0
KARS 201705Z 19013G19KT 32/16 A2997 RMK A01 T03200160  RH  040%=      5-min Rain = 0
KARS 201710Z 19012G17KT 32/16 A2997 RMK A01 T03180162  RH  041%=      5-min Rain = 0
KARS 201715Z 20012KT 32/16 A2997 RMK A01 T03210160  RH  040%=      5-min Rain = 0
KARS 201720Z 18012G17KT 33/16 A2998 RMK A01 T03250162  RH  039%=      5-min Rain = 0
KARS 201725Z 20012G17KT 32/16 A2997 RMK A01 T03240160  RH  039%=      5-min Rain = 0
KARS 201730Z 18012G19KT 33/16 A2997 RMK A01 T03270161  RH  039%=      5-min Rain = 0
KARS 201735Z 18012G17KT 33/16 A2997 RMK A01 T03280161  RH  039%=      5-min Rain = 0
KARS 201740Z 20012G17KT 33/16 A2997 RMK A01 T03300161  RH  038%=      5-min Rain = 0
KARS 201745Z 19013KT 33/16 A2997 RMK A01 T03310160  RH  038%=      5-min Rain = 0
KARS 201750Z 18012G18KT 33/16 A2997 RMK A01 T03320161  RH  038%=      5-min Rain = 0
KARS 201755Z 17013G19KT 34/16 A2997 RMK A01 T03360162  RH  037%=      5-min Rain = 0
KARS 201800Z 18013G19KT 34/16 A2996 RMK A01 T03390160  RH  036%=      5-min Rain = 0
KARS 201805Z 18013G18KT 34/16 A2996 RMK A01 T03370160  RH  037%=      5-min Rain = 0
KARS 201810Z 17013KT 34/16 A2996 RMK A01 T03390159  RH  036%=      5-min Rain = 0
KARS 201815Z 18012G17KT 34/16 A2996 RMK A01 T03400158  RH  035%=      5-min Rain = 0
KARS 201820Z 19012G18KT 34/16 A2996 RMK A01 T03400159  RH  036%=      5-min Rain = 0
KARS 201825Z 18013G18KT 34/16 A2996 RMK A01 T03400159  RH  036%=      5-min Rain = 0
KARS 201830Z 19012G18KT 34/16 A2996 RMK A01 T03440156  RH  034%=      5-min Rain = 0
KARS 201835Z 19011KT 34/16 A2996 RMK A01 T03420157  RH  035%=      5-min Rain = 0
KARS 201840Z 19011G17KT 34/16 A2996 RMK A01 T03440158  RH  035%=      5-min Rain = 0
KARS 201845Z 19013G18KT 35/16 A2995 RMK A01 T03490159  RH  034%=      5-min Rain = 0
KARS 201850Z 19012G18KT 35/16 A2995 RMK A01 T03460158  RH  034%=      5-min Rain = 0
KARS 201855Z 19012KT 35/16 A2995 RMK A01 T03500159  RH  034%=      5-min Rain = 0
KARS 201900Z 19011G16KT 35/16 A2995 RMK A01 T03530158  RH  033%=      5-min Rain = 0
KARS 201905Z 19011G16KT 35/16 A2995 RMK A01 T03540158  RH  033%=      5-min Rain = 0
KARS 201910Z 19011G18KT 35/16 A2995 RMK A01 T03540159  RH  033%=      5-min Rain = 0
KARS 201915Z 17012G18KT 35/16 A2995 RMK A01 T03530157  RH  033%=      5-min Rain = 0
KARS 201920Z 17012G17KT 36/16 A2995 RMK A01 T03550157  RH  032%=      5-min Rain = 0
KARS 201925Z 19012G17KT 36/16 A2994 RMK A01 T03570158  RH  032%=      5-min Rain = 0
KARS 201930Z 17013G18KT 36/16 A2994 RMK A01 T03590156  RH  031%=      5-min Rain = 0
KARS 201935Z 19011KT 36/16 A2994 RMK A01 T03600157  RH  031%=      5-min Rain = 0
KARS 201940Z 20013KT 36/16 A2994 RMK A01 T03590155  RH  031%=      5-min Rain = 0
KARS 201945Z 20013KT 36/15 A2994 RMK A01 T03600153  RH  031%=      5-min Rain = 0
KARS 201950Z 19010KT 36/16 A2994 RMK A01 T03580158  RH  032%=      5-min Rain = 0
KARS 201955Z 18013KT 37/16 A2994 RMK A01 T03650155  RH  030%=      5-min Rain = 0
KARS 202000Z 20011KT 37/15 A2993 RMK A01 T03650152  RH  029%=      5-min Rain = 0
KARS 202005Z 18012G19KT 37/16 A2993 RMK A01 T03650158  RH  031%=      5-min Rain = 0
KARS 202010Z 17012G19KT 37/16 A2993 RMK A01 T03670156  RH  030%=      5-min Rain = 0
KARS 202015Z 17013G18KT 37/15 A2993 RMK A01 T03660153  RH  030%=      5-min Rain = 0
KARS 202020Z 17012G17KT 36/16 A2993 RMK A01 T03640155  RH  030%=      5-min Rain = 0
KARS 202025Z 17013G18KT 37/15 A2993 RMK A01 T03680153  RH  029%=      5-min Rain = 0
KARS 202030Z 17013G19KT 37/16 A2993 RMK A01 T03690155  RH  029%=      5-min Rain = 0
KARS 202035Z 17013KT 37/15 A2992 RMK A01 T03710150  RH  028%=      5-min Rain = 0
KARS 202040Z 16013G18KT 37/15 A2992 RMK A01 T03730152  RH  028%=      5-min Rain = 0
KARS 202045Z 17013G18KT 37/15 A2992 RMK A01 T03720154  RH  029%=      5-min Rain = 0
KARS 202050Z 20013G19KT 37/15 A2991 RMK A01 T03730151  RH  028%=      5-min Rain = 0
KARS 202055Z 18014G20KT 37/15 A2992 RMK A01 T03700149  RH  028%=      5-min Rain = 0
KARS 202100Z 18015G22KT 37/15 A2991 RMK A01 T03710147  RH  028%=      5-min Rain = 0
KARS 202105Z 18016KT 37/15 A2991 RMK A01 T03740145  RH  027%=      5-min Rain = 0
KARS 202110Z 18014G19KT 37/14 A2991 RMK A01 T03740144  RH  027%=      5-min Rain = 0
KARS 202115Z 17015G22KT 38/15 A2991 RMK A01 T03760150  RH  027%=      5-min Rain = 0
KARS 202120Z 17016G22KT 37/15 A299 RMK A01 T03740150  RH  028%=      5-min Rain = 0
KARS 202125Z 18015G21KT 38/15 A299 RMK A01 T03750148  RH  027%=      5-min Rain = 0
KARS 202130Z 16015KT 38/15 A299 RMK A01 T03750149  RH  027%=      5-min Rain = 0
KARS 202135Z 18015G21KT 38/14 A299 RMK A01 T03760142  RH  026%=      5-min Rain = 0
KARS 202140Z 19014G19KT 38/14 A299 RMK A01 T03760142  RH  026%=      5-min Rain = 0
KARS 202145Z 17014G21KT 38/15 A2989 RMK A01 T03760149  RH  027%=      5-min Rain = 0
KARS 202150Z 17014G19KT 38/15 A2989 RMK A01 T03770145  RH  026%=      5-min Rain = 0
KARS 202155Z 16014G19KT 38/14 A2989 RMK A01 T03790144  RH  026%=      5-min Rain = 0
KARS 202200Z 17015G20KT 38/15 A2989 RMK A01 T03770148  RH  027%=      5-min Rain = 0
KARS 202205Z 18015G20KT 38/15 A2989 RMK A01 T03780147  RH  027%=      5-min Rain = 0
KARS 202210Z 17016G22KT 38/15 A2989 RMK A01 T03800145  RH  026%=      5-min Rain = 0
KARS 202215Z 18015KT 38/14 A2989 RMK A01 T03770137  RH  025%=      5-min Rain = 0
KARS 202220Z 17016G21KT 38/13 A2989 RMK A01 T03780134  RH  024%=      5-min Rain = 0
KARS 202225Z 17014G21KT 38/14 A2989 RMK A01 T03780135  RH  025%=      5-min Rain = 0
KARS 202230Z 17014G19KT 38/14 A2989 RMK A01 T03800137  RH  025%=      5-min Rain = 0
KARS 202235Z 17016KT 38/13 A2989 RMK A01 T03780134  RH  024%=      5-min Rain = 0
KARS 202240Z 17014G19KT 38/13 A2988 RMK A01 T03770132  RH  024%=      5-min Rain = 0
KARS 202245Z 16015KT 38/13 A2988 RMK A01 T03770133  RH  024%=      5-min Rain = 0
KARS 202250Z 16015G21KT 38/13 A2988 RMK A01 T03770133  RH  024%=      5-min Rain = 0
KARS 202255Z 17015KT 38/13 A2988 RMK A01 T03770131  RH  024%=      5-min Rain = 0
KARS 202300Z 18012KT 38/13 A2988 RMK A01 T03790131  RH  024%=      5-min Rain = 0
KARS 202305Z 17015G20KT 38/14 A2987 RMK A01 T03790136  RH  025%=      5-min Rain = 0
KARS 202310Z 16015G22KT 37/14 A2987 RMK A01 T03740135  RH  025%=      5-min Rain = 0
KARS 202315Z 17013G19KT 38/13 A2987 RMK A01 T03750132  RH  024%=      5-min Rain = 0
KARS 202320Z 19012G17KT 38/13 A2987 RMK A01 T03750131  RH  024%=      5-min Rain = 0
KARS 202325Z 17013KT 38/13 A2987 RMK A01 T03760134  RH  025%=      5-min Rain = 0
KARS 202330Z 17011KT 38/13 A2987 RMK A01 T03750130  RH  024%=      5-min Rain = 0
KARS 202335Z 18013KT 38/13 A2987 RMK A01 T03750128  RH  024%=      5-min Rain = 0
KARS 202340Z 17015KT 38/13 A2986 RMK A01 T03750132  RH  024%=      5-min Rain = 0
KARS 202345Z 18016KT 37/13 A2986 RMK A01 T03740131  RH  025%=      5-min Rain = 0
KARS 202350Z 18014G19KT 37/13 A2986 RMK A01 T03730132  RH  025%=      5-min Rain = 0
KARS 202355Z 17015G21KT 37/13 A2986 RMK A01 T03720130  RH  025%=      5-min Rain = 0
KARS 210000Z 18015KT 37/13 A2986 RMK A01 T03710128  RH  024%=      5-min Rain = 0
KARS 210005Z 19014KT 37/13 A2986 RMK A01 T03710127  RH  024%=      5-min Rain = 0
KARS 210010Z 18015G21KT 37/13 A2986 RMK A01 T03710127  RH  024%=      5-min Rain = 0
KARS 210015Z 17014KT 37/13 A2986 RMK A01 T03690130  RH  025%=      5-min Rain = 0
KARS 210020Z 17016KT 37/13 A2986 RMK A01 T03670128  RH  025%=      5-min Rain = 0
KARS 210025Z 17014KT 37/13 A2986 RMK A01 T03670129  RH  025%=      5-min Rain = 0
KARS 210030Z 17015KT 37/13 A2986 RMK A01 T03660131  RH  025%=      5-min Rain = 0
KARS 210035Z 17014KT 37/13 A2986 RMK A01 T03650130  RH  026%=      5-min Rain = 0
KARS 210040Z 17014KT 36/13 A2986 RMK A01 T03630131  RH  026%=      5-min Rain = 0
KARS 210045Z 16014KT 36/13 A2986 RMK A01 T03630130  RH  026%=      5-min Rain = 0
KARS 210050Z 17013G18KT 36/13 A2986 RMK A01 T03610130  RH  026%=      5-min Rain = 0
KARS 210055Z 16015KT 36/13 A2987 RMK A01 T03600129  RH  026%=      5-min Rain = 0
KARS 210100Z 17013KT 36/13 A2987 RMK A01 T03590130  RH  026%=      5-min Rain = 0
KARS 210105Z 17012KT 36/13 A2987 RMK A01 T03570132  RH  027%=      5-min Rain = 0
KARS 210110Z 17011KT 36/13 A2987 RMK A01 T03550132  RH  027%=      5-min Rain = 0
KARS 210115Z 17012KT 35/13 A2987 RMK A01 T03530131  RH  027%=      5-min Rain = 0
KARS 210120Z 17012KT 35/13 A2987 RMK A01 T03520130  RH  027%=      5-min Rain = 0
KARS 210125Z 17011KT 35/13 A2987 RMK A01 T03490130  RH  028%=      5-min Rain = 0
KARS 210130Z 17011KT 35/13 A2987 RMK A01 T03470129  RH  028%=      5-min Rain = 0
KARS 210135Z 17010KT 34/13 A2987 RMK A01 T03440129  RH  028%=      5-min Rain = 0
KARS 210140Z 17009KT 34/13 A2987 RMK A01 T03410130  RH  029%=      5-min Rain = 0
KARS 210145Z 16008KT 34/13 A2987 RMK A01 T03370131  RH  030%=      5-min Rain = 0
KARS 210150Z 16008KT 33/13 A2987 RMK A01 T03330131  RH  031%=      5-min Rain = 0
KARS 210155Z 16008KT 33/13 A2987 RMK A01 T03310130  RH  031%=      5-min Rain = 0
KARS 210200Z 16008KT 33/13 A2988 RMK A01 T03280130  RH  031%=      5-min Rain = 0
KARS 210205Z 16009KT 32/13 A2988 RMK A01 T03240131  RH  032%=      5-min Rain = 0
KARS 210210Z 16009KT 32/13 A2987 RMK A01 T03230131  RH  032%=      5-min Rain = 0
KARS 210215Z 16009KT 32/13 A2987 RMK A01 T03220130  RH  032%=      5-min Rain = 0
KARS 210220Z 16008KT 32/13 A2988 RMK A01 T03210131  RH  033%=      5-min Rain = 0
KARS 210225Z 16008KT 32/13 A2988 RMK A01 T03170131  RH  034%=      5-min Rain = 0
KARS 210230Z 16008KT 32/13 A2988 RMK A01 T03150131  RH  034%=      5-min Rain = 0
KARS 210235Z 16008KT 31/13 A2988 RMK A01 T03120131  RH  034%=      5-min Rain = 0
KARS 210240Z 16008KT 31/13 A2988 RMK A01 T03090131  RH  035%=      5-min Rain = 0
KARS 210245Z 16008KT 31/13 A2988 RMK A01 T03060132  RH  036%=      5-min Rain = 0
KARS 210250Z 15007KT 30/13 A2988 RMK A01 T03040132  RH  036%=      5-min Rain = 0
KARS 210255Z 14008KT 30/13 A2989 RMK A01 T03000132  RH  037%=      5-min Rain = 0
KARS 210300Z 14008G14KT 30/13 A2989 RMK A01 T02970132  RH  038%=      5-min Rain = 0
KARS 210305Z 14011G16KT 30/13 A2989 RMK A01 T03030130  RH  036%=      5-min Rain = 0
KARS 210310Z 15013KT 31/13 A2989 RMK A01 T03080132  RH  036%=      5-min Rain = 0
KARS 210315Z 15014KT 31/13 A2989 RMK A01 T03110134  RH  035%=      5-min Rain = 0
KARS 210320Z 14012KT 31/14 A299 RMK A01 T03110135  RH  036%=      5-min Rain = 0
KARS 210325Z 14012KT 31/14 A299 RMK A01 T03100136  RH  036%=      5-min Rain = 0
KARS 210330Z 14012KT 31/14 A299 RMK A01 T03090137  RH  037%=      5-min Rain = 0
KARS 210335Z 15012KT 31/14 A299 RMK A01 T03070137  RH  037%=      5-min Rain = 0
KARS 210340Z 15013KT 31/14 A2991 RMK A01 T03070136  RH  037%=      5-min Rain = 0
KARS 210345Z 15012KT 31/14 A2991 RMK A01 T03070135  RH  037%=      5-min Rain = 0
KARS 210350Z 15013KT 31/14 A2991 RMK A01 T03060135  RH  037%=      5-min Rain = 0
KARS 210355Z 15013KT 31/13 A2992 RMK A01 T03060134  RH  037%=      5-min Rain = 0
KARS 210400Z 15013KT 31/13 A2992 RMK A01 T03050134  RH  037%=      5-min Rain = 0
KARS 210405Z 15012KT 30/13 A2992 RMK A01 T03040133  RH  037%=      5-min Rain = 0
KARS 210410Z 16011KT 30/13 A2992 RMK A01 T03020132  RH  037%=      5-min Rain = 0
KARS 210415Z 16011KT 30/13 A2993 RMK A01 T03010132  RH  037%=      5-min Rain = 0
KARS 210420Z 15011KT 30/13 A2993 RMK A01 T02990132  RH  037%=      5-min Rain = 0
KARS 210425Z 15010KT 30/13 A2993 RMK A01 T02970132  RH  038%=      5-min Rain = 0
KARS 210430Z 15011KT 30/13 A2993 RMK A01 T02960131  RH  038%=      5-min Rain = 0
KARS 210435Z 15010KT 29/13 A2993 RMK A01 T02940131  RH  038%=      5-min Rain = 0
KARS 210440Z 15010KT 29/13 A2993 RMK A01 T02920131  RH  039%=      5-min Rain = 0
KARS 210445Z 15010KT 29/13 A2993 RMK A01 T02900131  RH  039%=      5-min Rain = 0
KARS 210450Z 16010KT 29/13 A2994 RMK A01 T02890131  RH  040%=      5-min Rain = 0
KARS 210455Z 16009KT 29/13 A2994 RMK A01 T02870131  RH  040%=      5-min Rain = 0

Page generated in 0.0151 seconds.